createdAt,value
2018-05-07T00:02:16.424Z,13.78
2018-05-07T00:04:42.246Z,13.78
2018-05-07T00:07:08.049Z,13.71
2018-05-07T00:09:34.030Z,13.56
2018-05-07T00:11:59.665Z,13.44
2018-05-07T00:14:25.472Z,13.21
2018-05-07T00:16:51.265Z,13.17
2018-05-07T00:19:17.045Z,13.29
2018-05-07T00:21:42.851Z,13.15
2018-05-07T00:24:08.624Z,13.26
2018-05-07T00:26:34.430Z,13.05
2018-05-07T00:29:00.202Z,12.89
2018-05-07T00:31:26.000Z,12.60
2018-05-07T00:33:51.773Z,12.45
2018-05-07T00:36:17.593Z,12.40
2018-05-07T00:38:43.393Z,12.46
2018-05-07T00:41:09.173Z,12.60
2018-05-07T00:43:35.001Z,12.57
2018-05-07T00:46:00.937Z,12.56
2018-05-07T00:48:26.708Z,12.47
2018-05-07T00:50:52.521Z,12.52
2018-05-07T00:53:18.389Z,12.45
2018-05-07T00:55:44.173Z,12.44
2018-05-07T00:58:09.955Z,12.47
2018-05-07T01:00:35.726Z,12.57
2018-05-07T01:03:08.532Z,12.49
2018-05-07T01:05:34.325Z,12.54
2018-05-07T01:08:00.138Z,12.57
2018-05-07T01:10:25.909Z,12.57
2018-05-07T01:12:51.726Z,12.51
2018-05-07T01:15:17.683Z,12.46
2018-05-07T01:17:43.468Z,12.44
2018-05-07T01:20:09.246Z,12.35
2018-05-07T01:22:35.125Z,12.37
2018-05-07T01:25:00.921Z,12.33
2018-05-07T01:27:26.702Z,12.44
2018-05-07T01:29:52.505Z,12.37
2018-05-07T01:32:18.281Z,12.63
2018-05-07T01:34:44.065Z,12.67
2018-05-07T01:37:09.840Z,12.60
2018-05-07T01:39:35.647Z,12.47
2018-05-07T01:42:01.445Z,12.57
2018-05-07T01:44:27.225Z,12.43
2018-05-07T01:46:53.033Z,12.59
2018-05-07T01:49:18.824Z,12.49
2018-05-07T01:51:44.621Z,12.56
2018-05-07T01:54:10.408Z,12.59
2018-05-07T01:56:36.200Z,12.65
2018-05-07T01:59:01.996Z,12.58
2018-05-07T02:01:27.766Z,12.64
2018-05-07T02:04:00.617Z,12.55
2018-05-07T02:06:26.414Z,12.57
2018-05-07T02:08:52.199Z,12.88
2018-05-07T02:11:17.981Z,13.16
2018-05-07T02:13:43.796Z,13.11
2018-05-07T02:16:09.625Z,12.85
2018-05-07T02:18:35.411Z,12.86
2018-05-07T02:21:01.540Z,13.34
2018-05-07T02:23:27.316Z,13.25
2018-05-07T02:25:53.108Z,13.26
2018-05-07T02:28:18.974Z,13.18
2018-05-07T02:30:44.731Z,13.63
2018-05-07T02:33:10.528Z,13.50
2018-05-07T02:35:36.745Z,13.54
2018-05-07T02:38:03.232Z,13.28
2018-05-07T02:40:29.034Z,13.07
2018-05-07T02:42:55.838Z,13.08
2018-05-07T02:45:21.633Z,13.21
2018-05-07T02:47:47.423Z,13.38
2018-05-07T02:50:13.222Z,13.26
2018-05-07T02:52:39.022Z,13.25
2018-05-07T02:55:04.841Z,13.12
2018-05-07T02:57:30.617Z,12.98
2018-05-07T02:59:56.437Z,12.84
2018-05-07T03:02:22.205Z,12.76
2018-05-07T03:04:47.999Z,12.53
2018-05-07T03:07:13.798Z,12.47
2018-05-07T03:09:39.586Z,12.54
2018-05-07T03:12:05.386Z,12.78
2018-05-07T03:14:31.178Z,12.45
2018-05-07T03:16:56.989Z,12.40
2018-05-07T03:19:22.777Z,12.26
2018-05-07T03:21:48.561Z,12.32
2018-05-07T03:24:14.363Z,12.38
2018-05-07T03:26:40.153Z,12.38
2018-05-07T03:29:05.922Z,12.29
2018-05-07T03:31:31.941Z,12.33
2018-05-07T03:33:57.736Z,12.36
2018-05-07T03:36:30.701Z,12.49
2018-05-07T03:38:56.564Z,12.43
2018-05-07T03:41:22.356Z,12.38
2018-05-07T03:43:48.211Z,12.35
2018-05-07T03:46:14.054Z,12.40
2018-05-07T03:48:39.896Z,12.53
2018-05-07T03:51:05.656Z,12.57
2018-05-07T03:53:31.443Z,12.90
2018-05-07T03:55:57.225Z,12.84
2018-05-07T03:58:23.007Z,12.66
2018-05-07T04:00:49.560Z,12.63
2018-05-07T04:03:17.213Z,12.61
2018-05-07T04:05:44.636Z,12.60
2018-05-07T04:08:11.474Z,12.67
2018-05-07T04:10:37.353Z,12.68
2018-05-07T04:13:03.145Z,12.66
2018-05-07T04:15:28.978Z,12.48
2018-05-07T04:18:07.333Z,12.60
2018-05-07T04:20:45.483Z,12.67
2018-05-07T04:23:23.728Z,12.83
2018-05-07T04:25:49.521Z,12.87
2018-05-07T04:28:15.300Z,12.66
2018-05-07T04:30:41.113Z,12.55
2018-05-07T04:33:06.891Z,12.67
2018-05-07T04:35:32.666Z,12.92
2018-05-07T04:37:58.454Z,12.66
2018-05-07T04:40:24.258Z,12.60
2018-05-07T04:42:50.028Z,12.74
2018-05-07T04:45:15.801Z,13.00
2018-05-07T04:47:41.592Z,12.99
2018-05-07T04:50:07.360Z,12.68
2018-05-07T04:52:33.155Z,12.61
2018-05-07T04:54:58.948Z,12.66
2018-05-07T04:57:24.740Z,12.65
2018-05-07T04:59:50.529Z,12.65
2018-05-07T05:02:16.329Z,12.65
2018-05-07T05:04:42.185Z,12.78
2018-05-07T05:07:08.004Z,12.88
2018-05-07T05:09:33.782Z,13.03
2018-05-07T05:11:59.598Z,12.91
2018-05-07T05:14:25.369Z,12.94
2018-05-07T05:19:17.228Z,13.04
2018-05-07T05:21:42.972Z,13.11
2018-05-07T05:24:08.745Z,13.23
2018-05-07T05:26:34.533Z,13.23
2018-05-07T05:29:00.300Z,13.32
2018-05-07T05:31:26.127Z,13.44
2018-05-07T05:33:51.909Z,13.47
2018-05-07T05:36:17.701Z,13.50
2018-05-07T05:38:43.476Z,13.55
2018-05-07T05:41:09.264Z,13.68
2018-05-07T05:43:35.073Z,13.78
2018-05-07T05:46:00.856Z,13.87
2018-05-07T05:48:26.641Z,13.87
2018-05-07T05:50:52.420Z,13.95
2018-05-07T05:53:18.222Z,13.99
2018-05-07T05:55:44.000Z,14.15
2018-05-07T05:58:09.806Z,14.23
2018-05-07T06:00:35.596Z,14.39
2018-05-07T06:03:01.394Z,14.49
2018-05-07T06:05:27.164Z,14.69
2018-05-07T06:07:52.953Z,14.77
2018-05-07T06:10:18.758Z,14.80
2018-05-07T06:12:44.542Z,14.83
2018-05-07T06:15:10.315Z,14.89
2018-05-07T06:17:36.291Z,15.10
2018-05-07T06:20:02.174Z,15.25
2018-05-07T06:22:27.897Z,15.33
2018-05-07T06:24:53.698Z,15.36
2018-05-07T06:27:19.558Z,15.40
2018-05-07T06:29:45.286Z,15.55
2018-05-07T06:32:11.070Z,15.57
2018-05-07T06:34:36.857Z,15.60
2018-05-07T06:37:02.684Z,15.65
2018-05-07T06:39:28.470Z,15.79
2018-05-07T06:41:54.266Z,15.90
2018-05-07T06:44:20.068Z,15.97
2018-05-07T06:46:45.847Z,16.05
2018-05-07T06:49:11.643Z,16.15
2018-05-07T06:51:37.458Z,16.23
2018-05-07T06:54:03.252Z,16.34
2018-05-07T06:56:29.047Z,16.41
2018-05-07T06:58:54.836Z,16.53
2018-05-07T07:01:20.629Z,16.57
2018-05-07T07:03:46.677Z,16.60
2018-05-07T07:06:12.578Z,16.77
2018-05-07T07:08:38.413Z,16.86
2018-05-07T07:11:04.176Z,16.99
2018-05-07T07:13:29.981Z,17.13
2018-05-07T07:15:55.759Z,17.17
2018-05-07T07:18:21.538Z,17.22
2018-05-07T07:20:47.330Z,17.44
2018-05-07T07:23:13.125Z,17.49
2018-05-07T07:25:38.942Z,17.62
2018-05-07T07:28:04.779Z,17.73
2018-05-07T07:30:30.522Z,17.85
2018-05-07T07:32:56.354Z,17.91
2018-05-07T07:35:22.138Z,18.03
2018-05-07T07:37:47.951Z,18.07
2018-05-07T07:40:13.740Z,18.10
2018-05-07T07:42:39.537Z,18.18
2018-05-07T07:45:05.987Z,18.32
2018-05-07T07:47:31.764Z,18.40
2018-05-07T07:49:57.548Z,18.48
2018-05-07T07:52:23.436Z,18.56
2018-05-07T07:54:49.149Z,18.62
2018-05-07T07:57:14.938Z,18.77
2018-05-07T07:59:40.753Z,18.81
2018-05-07T08:02:06.537Z,18.92
2018-05-07T08:04:32.321Z,19.06
2018-05-07T08:06:58.114Z,19.21
2018-05-07T08:09:23.917Z,19.30
2018-05-07T08:11:49.700Z,19.41
2018-05-07T08:14:15.490Z,19.37
2018-05-07T08:16:41.291Z,19.57
2018-05-07T08:19:07.097Z,19.66
2018-05-07T08:21:32.890Z,19.84
2018-05-07T08:23:58.677Z,19.85
2018-05-07T08:26:24.466Z,20.04
2018-05-07T08:28:50.243Z,20.03
2018-05-07T08:31:16.027Z,20.08
2018-05-07T08:33:41.828Z,20.13
2018-05-07T08:36:07.623Z,20.18
2018-05-07T08:38:33.442Z,20.14
2018-05-07T08:40:59.208Z,20.17
2018-05-07T08:43:24.988Z,20.29
2018-05-07T08:45:50.816Z,20.54
2018-05-07T08:48:16.590Z,20.62
2018-05-07T08:50:42.407Z,20.74
2018-05-07T08:53:08.260Z,20.85
2018-05-07T08:55:33.990Z,20.94
2018-05-07T08:57:59.804Z,20.95
2018-05-07T09:00:25.577Z,20.96
2018-05-07T09:02:51.355Z,21.20
2018-05-07T09:05:17.149Z,21.25
2018-05-07T09:07:42.929Z,21.16
2018-05-07T09:10:08.749Z,21.22
2018-05-07T09:12:34.540Z,21.35
2018-05-07T09:15:00.347Z,21.35
2018-05-07T09:17:26.166Z,21.46
2018-05-07T09:19:51.956Z,21.42
2018-05-07T09:22:17.753Z,21.54
2018-05-07T09:24:43.601Z,21.64
2018-05-07T09:27:09.461Z,21.72
2018-05-07T09:29:35.238Z,21.77
2018-05-07T09:32:01.038Z,21.66
2018-05-07T09:34:26.824Z,21.81
2018-05-07T09:36:52.593Z,21.85
2018-05-07T09:39:18.379Z,21.87
2018-05-07T09:41:44.173Z,22.05
2018-05-07T09:44:09.976Z,22.04
2018-05-07T09:46:35.768Z,22.06
2018-05-07T09:49:01.568Z,22.13
2018-05-07T09:51:27.349Z,22.24
2018-05-07T09:53:53.129Z,22.33
2018-05-07T09:56:18.909Z,22.44
2018-05-07T09:58:56.072Z,22.56
2018-05-07T10:01:21.853Z,22.51
2018-05-07T10:03:47.629Z,22.62
2018-05-07T10:06:13.441Z,22.52
2018-05-07T10:08:39.232Z,22.61
2018-05-07T10:11:05.026Z,22.65
2018-05-07T10:13:30.825Z,22.78
2018-05-07T10:15:56.618Z,22.80
2018-05-07T10:18:22.392Z,22.72
2018-05-07T10:20:48.177Z,22.72
2018-05-07T10:23:14.289Z,22.85
2018-05-07T10:25:40.099Z,23.08
2018-05-07T10:28:05.892Z,23.21
2018-05-07T10:30:31.663Z,23.21
2018-05-07T10:32:57.448Z,23.08
2018-05-07T10:35:23.235Z,23.16
2018-05-07T10:37:49.015Z,23.25
2018-05-07T10:40:15.018Z,23.20
2018-05-07T10:42:40.850Z,23.35
2018-05-07T10:45:06.595Z,23.50
2018-05-07T10:47:32.404Z,23.49
2018-05-07T10:49:58.197Z,23.64
2018-05-07T10:52:23.983Z,23.52
2018-05-07T10:54:49.765Z,23.40
2018-05-07T10:57:15.553Z,23.46
2018-05-07T10:59:41.325Z,23.73
2018-05-07T11:02:07.376Z,23.87
2018-05-07T11:04:33.181Z,23.73
2018-05-07T11:06:58.955Z,23.72
2018-05-07T11:09:24.781Z,23.78
2018-05-07T11:11:50.604Z,23.89
2018-05-07T11:14:16.387Z,23.79
2018-05-07T11:16:42.175Z,23.76
2018-05-07T11:19:07.969Z,23.81
2018-05-07T11:21:33.757Z,23.89
2018-05-07T11:23:59.548Z,23.89
2018-05-07T11:26:25.317Z,24.11
2018-05-07T11:28:51.103Z,24.04
2018-05-07T11:31:16.898Z,24.18
2018-05-07T11:33:42.676Z,24.18
2018-05-07T11:36:08.497Z,24.07
2018-05-07T11:38:34.278Z,23.88
2018-05-07T11:41:00.073Z,24.06
2018-05-07T11:43:25.852Z,24.04
2018-05-07T11:45:51.636Z,24.00
2018-05-07T11:48:17.456Z,24.09
2018-05-07T11:50:43.248Z,24.29
2018-05-07T11:53:09.136Z,24.53
2018-05-07T11:55:35.124Z,24.52
2018-05-07T11:58:00.927Z,24.08
2018-05-07T12:00:26.741Z,24.19
2018-05-07T12:02:52.534Z,24.17
2018-05-07T12:05:18.313Z,24.40
2018-05-07T12:07:44.082Z,24.59
2018-05-07T12:10:09.856Z,24.53
2018-05-07T12:12:35.633Z,25.00
2018-05-07T12:15:01.626Z,25.15
2018-05-07T12:17:27.409Z,25.31
2018-05-07T12:19:53.193Z,25.38
2018-05-07T12:22:18.985Z,25.66
2018-05-07T12:24:44.780Z,25.84
2018-05-07T12:27:10.563Z,25.82
2018-05-07T12:29:36.360Z,25.62
2018-05-07T12:32:02.137Z,25.71
2018-05-07T12:34:27.924Z,26.14
2018-05-07T12:36:53.713Z,26.26
2018-05-07T12:39:19.482Z,26.35
2018-05-07T12:41:45.259Z,26.25
2018-05-07T12:44:11.050Z,26.49
2018-05-07T12:46:36.981Z,26.79
2018-05-07T12:49:02.756Z,26.79
2018-05-07T12:51:28.720Z,27.04
2018-05-07T12:53:54.520Z,27.22
2018-05-07T12:56:20.317Z,27.08
2018-05-07T12:58:46.158Z,26.77
2018-05-07T13:01:11.961Z,26.90
2018-05-07T13:03:37.744Z,26.79
2018-05-07T13:06:03.545Z,27.38
2018-05-07T13:08:29.348Z,27.23
2018-05-07T13:10:55.148Z,26.71
2018-05-07T13:13:20.952Z,27.52
2018-05-07T13:15:46.745Z,28.20
2018-05-07T13:18:12.533Z,27.67
2018-05-07T13:20:38.505Z,27.21
2018-05-07T13:23:04.294Z,27.81
2018-05-07T13:25:30.088Z,28.46
2018-05-07T13:27:55.892Z,28.80
2018-05-07T13:30:21.780Z,28.90
2018-05-07T13:32:47.570Z,28.17
2018-05-07T13:35:13.352Z,27.93
2018-05-07T13:37:39.342Z,28.01
2018-05-07T13:40:05.140Z,28.92
2018-05-07T13:42:30.927Z,28.74
2018-05-07T13:44:56.729Z,28.40
2018-05-07T13:47:22.502Z,28.35
2018-05-07T13:49:48.326Z,28.03
2018-05-07T13:52:14.118Z,28.21
2018-05-07T13:54:39.928Z,28.35
2018-05-07T13:57:05.724Z,27.71
2018-05-07T13:59:31.498Z,28.04
2018-05-07T14:01:57.314Z,28.01
2018-05-07T14:04:23.126Z,27.81
2018-05-07T14:06:48.898Z,28.56
2018-05-07T14:09:14.693Z,29.08
2018-05-07T14:11:40.482Z,29.07
2018-05-07T14:14:06.272Z,29.20
2018-05-07T14:16:32.066Z,28.96
2018-05-07T14:18:57.857Z,29.15
2018-05-07T14:21:23.669Z,28.94
2018-05-07T14:23:49.456Z,28.90
2018-05-07T14:26:15.252Z,28.73
2018-05-07T14:28:41.049Z,28.58
2018-05-07T14:31:06.824Z,27.54
2018-05-07T14:33:32.693Z,27.90
2018-05-07T14:35:58.468Z,27.51
2018-05-07T14:38:24.256Z,27.65
2018-05-07T14:40:50.033Z,27.33
2018-05-07T14:43:15.853Z,27.63
2018-05-07T14:45:41.736Z,27.71
2018-05-07T14:48:07.455Z,27.33
2018-05-07T14:50:33.249Z,27.32
2018-05-07T14:52:59.065Z,26.98
2018-05-07T14:55:24.856Z,27.04
2018-05-07T14:57:50.648Z,26.89
2018-05-07T15:00:16.453Z,26.67
2018-05-07T15:02:42.233Z,26.67
2018-05-07T15:05:08.039Z,26.76
2018-05-07T15:07:33.848Z,26.76
2018-05-07T15:09:59.633Z,26.60
2018-05-07T15:12:25.426Z,26.28
2018-05-07T15:14:51.233Z,26.13
2018-05-07T15:17:17.013Z,26.20
2018-05-07T15:19:43.075Z,26.08
2018-05-07T15:22:08.877Z,25.91
2018-05-07T15:24:44.929Z,25.93
2018-05-07T15:27:11.000Z,26.09
2018-05-07T15:29:36.806Z,26.01
2018-05-07T15:32:02.673Z,26.04
2018-05-07T15:34:28.540Z,25.96
2018-05-07T15:36:54.261Z,25.76
2018-05-07T15:39:20.063Z,25.65
2018-05-07T15:41:45.848Z,25.51
2018-05-07T15:44:11.647Z,25.52
2018-05-07T15:46:37.445Z,25.53
2018-05-07T15:49:03.246Z,25.62
2018-05-07T15:51:29.042Z,25.61
2018-05-07T15:53:54.935Z,25.47
2018-05-07T15:56:20.653Z,25.39
2018-05-07T15:58:46.455Z,25.48
2018-05-07T16:01:12.248Z,25.52
2018-05-07T16:03:38.034Z,25.36
2018-05-07T16:06:03.849Z,25.09
2018-05-07T16:08:29.648Z,25.25
2018-05-07T16:10:55.453Z,25.13
2018-05-07T16:13:21.242Z,25.11
2018-05-07T16:15:47.044Z,25.11
2018-05-07T16:18:13.213Z,25.08
2018-05-07T16:20:39.067Z,25.02
2018-05-07T16:23:04.790Z,25.04
2018-05-07T16:25:30.616Z,25.04
2018-05-07T16:27:56.394Z,25.09
2018-05-07T16:30:22.182Z,25.04
2018-05-07T16:32:47.996Z,24.97
2018-05-07T16:35:13.784Z,24.93
2018-05-07T16:37:39.619Z,24.88
2018-05-07T16:40:05.436Z,24.80
2018-05-07T16:42:31.212Z,24.66
2018-05-07T16:44:57.061Z,24.59
2018-05-07T16:47:22.890Z,24.55
2018-05-07T16:49:48.681Z,24.53
2018-05-07T16:52:14.488Z,24.60
2018-05-07T16:54:40.275Z,24.60
2018-05-07T16:57:06.060Z,24.61
2018-05-07T16:59:31.892Z,24.58
2018-05-07T17:01:57.813Z,24.59
2018-05-07T17:04:23.597Z,24.40
2018-05-07T17:06:49.437Z,24.04
2018-05-07T17:09:15.394Z,23.74
2018-05-07T17:11:41.188Z,23.55
2018-05-07T17:14:07.001Z,23.49
2018-05-07T17:16:32.776Z,23.51
2018-05-07T17:18:58.566Z,23.21
2018-05-07T17:21:24.360Z,23.16
2018-05-07T17:23:50.162Z,23.15
2018-05-07T17:26:16.002Z,23.18
2018-05-07T17:28:41.808Z,22.98
2018-05-07T17:31:09.393Z,23.00
2018-05-07T17:33:36.135Z,22.76
2018-05-07T17:36:04.830Z,22.60
2018-05-07T17:38:32.737Z,22.42
2018-05-07T17:41:00.342Z,22.42
2018-05-07T17:43:29.079Z,22.31
2018-05-07T17:46:07.769Z,22.19
2018-05-07T17:48:46.825Z,22.17
2018-05-07T17:51:13.645Z,22.14
2018-05-07T17:53:39.457Z,22.02
2018-05-07T17:56:06.763Z,22.03
2018-05-07T17:58:32.590Z,21.90
2018-05-07T18:00:59.469Z,21.82
2018-05-07T18:03:26.553Z,21.61
2018-05-07T18:05:53.749Z,21.57
2018-05-07T18:08:19.541Z,21.55
2018-05-07T18:10:48.121Z,21.44
2018-05-07T18:13:15.565Z,21.46
2018-05-07T18:15:43.220Z,21.24
2018-05-07T18:18:09.587Z,21.18
2018-05-07T18:20:35.414Z,21.11
2018-05-07T18:23:01.206Z,21.12
2018-05-07T18:25:26.973Z,21.11
2018-05-07T18:27:52.797Z,21.03
2018-05-07T18:30:18.596Z,21.00
2018-05-07T18:32:44.402Z,20.94
2018-05-07T18:35:10.200Z,20.89
2018-05-07T18:37:36.001Z,20.76
2018-05-07T18:40:01.810Z,20.70
2018-05-07T18:42:27.603Z,20.59
2018-05-07T18:44:53.677Z,20.61
2018-05-07T18:47:19.487Z,20.57
2018-05-07T18:49:45.249Z,20.45
2018-05-07T18:52:11.062Z,20.41
2018-05-07T18:54:36.855Z,20.31
2018-05-07T18:57:02.662Z,20.25
2018-05-07T18:59:28.455Z,20.23
2018-05-07T19:01:54.290Z,20.13
2018-05-07T19:04:20.445Z,20.14
2018-05-07T19:06:46.249Z,20.04
2018-05-07T19:09:12.232Z,19.96
2018-05-07T19:11:38.037Z,19.90
2018-05-07T19:14:03.843Z,19.82
2018-05-07T19:16:29.830Z,19.70
2018-05-07T19:18:55.633Z,19.70
2018-05-07T19:21:21.551Z,19.72
2018-05-07T19:23:47.360Z,19.58
2018-05-07T19:26:13.164Z,19.47
2018-05-07T19:28:38.956Z,19.41
2018-05-07T19:31:04.762Z,19.39
2018-05-07T19:33:30.576Z,19.20
2018-05-07T19:35:56.371Z,19.19
2018-05-07T19:38:22.160Z,19.17
2018-05-07T19:40:47.980Z,19.08
2018-05-07T19:43:13.769Z,18.99
2018-05-07T19:45:39.582Z,18.90
2018-05-07T19:48:05.478Z,18.83
2018-05-07T19:50:31.265Z,18.75
2018-05-07T19:52:57.065Z,18.57
2018-05-07T19:55:22.873Z,18.53
2018-05-07T19:57:48.788Z,18.53
2018-05-07T20:00:14.597Z,18.45
2018-05-07T20:02:40.399Z,18.44
2018-05-07T20:05:06.208Z,18.39
2018-05-07T20:07:32.008Z,18.39
2018-05-07T20:09:57.808Z,18.29
2018-05-07T20:12:23.661Z,18.23
2018-05-07T20:14:49.409Z,17.97
2018-05-07T20:17:15.209Z,17.94
2018-05-07T20:19:41.021Z,17.86
2018-05-07T20:22:06.795Z,17.78
2018-05-07T20:24:32.596Z,17.84
2018-05-07T20:26:58.573Z,17.86
2018-05-07T20:29:24.372Z,17.78
2018-05-07T20:31:50.148Z,17.70
2018-05-07T20:34:15.952Z,17.72
2018-05-07T20:36:41.733Z,17.55
2018-05-07T20:39:07.516Z,17.48
2018-05-07T20:41:33.313Z,17.53
2018-05-07T20:43:59.240Z,17.47
2018-05-07T20:46:25.036Z,17.36
2018-05-07T20:48:50.894Z,17.30
2018-05-07T20:51:16.730Z,17.23
2018-05-07T20:53:43.299Z,17.11
2018-05-07T20:56:09.242Z,17.07
2018-05-07T20:58:35.047Z,17.12
2018-05-07T21:01:00.953Z,17.14
2018-05-07T21:03:26.872Z,17.20
2018-05-07T21:05:52.777Z,17.02
2018-05-07T21:08:18.579Z,17.03
2018-05-07T21:10:44.368Z,16.85
2018-05-07T21:13:10.246Z,16.80
2018-05-07T21:15:35.956Z,16.90
2018-05-07T21:18:01.986Z,16.82
2018-05-07T21:20:27.780Z,16.94
2018-05-07T21:22:53.600Z,17.04
2018-05-07T21:25:19.445Z,16.88
2018-05-07T21:27:45.223Z,16.78
2018-05-07T21:30:11.372Z,16.61
2018-05-07T21:32:37.470Z,16.62
2018-05-07T21:35:03.261Z,16.62
2018-05-07T21:37:29.056Z,16.54
2018-05-07T21:39:54.842Z,16.56
2018-05-07T21:42:20.641Z,16.48
2018-05-07T21:44:46.454Z,16.47
2018-05-07T21:47:12.669Z,16.33
2018-05-07T21:49:38.452Z,16.31
2018-05-07T21:52:04.368Z,16.27
2018-05-07T21:54:30.170Z,16.22
2018-05-07T21:56:55.961Z,16.14
2018-05-07T21:59:21.773Z,16.20
2018-05-07T22:01:47.566Z,16.20
2018-05-07T22:04:13.548Z,16.16
2018-05-07T22:06:39.992Z,16.04
2018-05-07T22:09:06.157Z,15.99
2018-05-07T22:11:31.945Z,16.02
2018-05-07T22:13:58.233Z,16.01
2018-05-07T22:16:24.021Z,15.92
2018-05-07T22:18:51.834Z,15.89
2018-05-07T22:21:18.448Z,15.87
2018-05-07T22:23:44.221Z,15.79
2018-05-07T22:26:10.403Z,15.82
2018-05-07T22:28:36.273Z,15.91
2018-05-07T22:31:02.094Z,15.82
2018-05-07T22:33:27.879Z,15.88
2018-05-07T22:35:53.680Z,15.79
2018-05-07T22:38:19.557Z,15.84
2018-05-07T22:40:45.590Z,15.77
2018-05-07T22:43:11.411Z,15.78
2018-05-07T22:45:37.285Z,15.76
2018-05-07T22:48:03.134Z,15.74
2018-05-07T22:50:28.929Z,15.73
2018-05-07T22:52:54.736Z,15.74
2018-05-07T22:55:20.636Z,15.82
2018-05-07T22:57:46.428Z,15.69
2018-05-07T23:00:13.084Z,15.72
2018-05-07T23:02:38.901Z,15.62
2018-05-07T23:05:04.692Z,15.60
2018-05-07T23:07:30.484Z,15.66
2018-05-07T23:09:56.293Z,15.77
2018-05-07T23:12:22.127Z,15.73
2018-05-07T23:14:47.929Z,15.73
2018-05-07T23:17:13.721Z,15.76
2018-05-07T23:19:39.537Z,15.61
2018-05-07T23:22:05.335Z,15.62
2018-05-07T23:24:31.116Z,15.59
2018-05-07T23:26:56.925Z,15.52
2018-05-07T23:29:22.727Z,15.66
2018-05-07T23:31:48.504Z,15.43
2018-05-07T23:34:14.297Z,15.60
2018-05-07T23:36:40.090Z,15.41
2018-05-07T23:39:05.897Z,15.44
2018-05-07T23:41:31.716Z,15.44
2018-05-07T23:43:57.500Z,15.49
2018-05-07T23:46:23.306Z,15.54
2018-05-07T23:48:49.097Z,15.34
2018-05-07T23:51:14.874Z,15.53
2018-05-07T23:53:40.690Z,15.52
2018-05-07T23:56:06.482Z,15.50
2018-05-07T23:58:32.260Z,15.43
